createdAt,value
2017-11-17T00:00:06.155Z,9.61
2017-11-17T00:01:08.651Z,9.60
2017-11-17T00:02:05.367Z,9.65
2017-11-17T00:03:05.352Z,9.64
2017-11-17T00:04:05.343Z,9.64
2017-11-17T00:05:06.331Z,9.65
2017-11-17T00:06:05.319Z,9.64
2017-11-17T00:07:05.302Z,9.64
2017-11-17T00:08:05.282Z,9.68
2017-11-17T00:09:05.284Z,9.64
2017-11-17T00:10:05.254Z,9.61
2017-11-17T00:11:05.288Z,9.60
2017-11-17T00:12:05.215Z,9.66
2017-11-17T00:13:05.213Z,9.64
2017-11-17T00:14:05.194Z,9.75
2017-11-17T00:15:05.208Z,9.78
2017-11-17T00:16:05.172Z,9.75
2017-11-17T00:17:05.183Z,9.69
2017-11-17T00:18:05.138Z,9.75
2017-11-17T00:19:05.117Z,9.72
2017-11-17T00:20:05.103Z,9.71
2017-11-17T00:21:05.089Z,9.71
2017-11-17T00:22:05.139Z,9.72
2017-11-17T00:23:05.068Z,9.76
2017-11-17T00:24:05.044Z,9.72
2017-11-17T00:25:05.036Z,9.79
2017-11-17T00:26:05.013Z,9.76
2017-11-17T00:27:04.999Z,9.75
2017-11-17T00:28:05.124Z,9.75
2017-11-17T00:29:04.967Z,9.72
2017-11-17T00:30:04.975Z,9.72
2017-11-17T00:31:04.935Z,9.69
2017-11-17T00:32:04.924Z,9.79
2017-11-17T00:33:04.914Z,9.75
2017-11-17T00:34:04.953Z,9.74
2017-11-17T00:35:04.888Z,9.72
2017-11-17T00:36:04.862Z,9.76
2017-11-17T00:37:05.082Z,9.76
2017-11-17T00:38:04.834Z,9.78
2017-11-17T00:39:04.840Z,9.72
2017-11-17T00:40:04.803Z,9.72
2017-11-17T00:41:04.808Z,9.72
2017-11-17T00:42:04.783Z,9.75
2017-11-17T00:43:04.804Z,9.74
2017-11-17T00:44:04.747Z,9.75
2017-11-17T00:45:04.738Z,9.72
2017-11-17T00:46:04.737Z,9.74
2017-11-17T00:47:04.705Z,9.71
2017-11-17T00:48:04.690Z,9.76
2017-11-17T00:49:04.726Z,9.72
2017-11-17T00:50:04.655Z,9.75
2017-11-17T00:51:04.648Z,9.79
2017-11-17T00:52:04.688Z,9.81
2017-11-17T00:53:04.624Z,9.71
2017-11-17T00:54:04.598Z,9.68
2017-11-17T00:55:04.601Z,9.71
2017-11-17T00:56:04.566Z,9.76
2017-11-17T00:57:04.559Z,9.76
2017-11-17T00:58:04.685Z,9.75
2017-11-17T00:59:04.534Z,9.71
2017-11-17T01:00:04.522Z,9.69
2017-11-17T01:01:04.500Z,9.71
2017-11-17T01:02:04.492Z,9.69
2017-11-17T01:03:04.474Z,9.72
2017-11-17T01:04:04.509Z,9.65
2017-11-17T01:05:04.436Z,9.65
2017-11-17T01:06:04.452Z,9.76
2017-11-17T01:07:04.407Z,9.72
2017-11-17T01:08:04.398Z,9.76
2017-11-17T01:09:04.380Z,9.76
2017-11-17T01:10:04.453Z,9.69
2017-11-17T01:11:04.356Z,9.72
2017-11-17T01:12:04.334Z,9.76
2017-11-17T01:13:04.320Z,9.72
2017-11-17T01:14:04.315Z,9.79
2017-11-17T01:15:04.289Z,9.72
2017-11-17T01:16:04.315Z,9.72
2017-11-17T01:17:04.269Z,9.76
2017-11-17T01:18:04.262Z,9.72
2017-11-17T01:19:04.230Z,9.64
2017-11-17T01:20:04.232Z,9.60
2017-11-17T01:21:04.203Z,9.60
2017-11-17T01:22:04.290Z,9.64
2017-11-17T01:23:04.172Z,9.58
2017-11-17T01:24:04.163Z,9.66
2017-11-17T01:25:04.147Z,9.61
2017-11-17T01:26:04.159Z,9.64
2017-11-17T01:27:04.113Z,9.64
2017-11-17T01:28:04.191Z,9.60
2017-11-17T01:29:04.098Z,9.66
2017-11-17T01:30:04.070Z,9.64
2017-11-17T01:31:04.051Z,9.65
2017-11-17T01:32:04.042Z,9.65
2017-11-17T01:33:04.079Z,9.64
2017-11-17T01:34:04.474Z,9.60
2017-11-17T01:35:04.006Z,9.61
2017-11-17T01:36:03.979Z,9.69
2017-11-17T01:37:03.977Z,9.65
2017-11-17T01:38:03.956Z,9.60
2017-11-17T01:39:03.934Z,9.56
2017-11-17T01:40:03.954Z,9.53
2017-11-17T01:41:03.934Z,9.57
2017-11-17T01:42:03.905Z,9.61
2017-11-17T01:43:03.883Z,9.53
2017-11-17T01:44:03.850Z,9.58
2017-11-17T01:45:03.957Z,9.56
2017-11-17T01:46:03.830Z,9.51
2017-11-17T01:47:03.835Z,9.53
2017-11-17T01:48:03.799Z,9.51
2017-11-17T01:49:03.800Z,9.64
2017-11-17T01:50:03.777Z,9.57
2017-11-17T01:51:03.794Z,9.51
2017-11-17T01:52:03.738Z,9.50
2017-11-17T01:53:03.754Z,9.50
2017-11-17T01:54:03.719Z,9.53
2017-11-17T01:55:03.686Z,9.53
2017-11-17T01:56:03.836Z,9.56
2017-11-17T01:57:03.671Z,9.61
2017-11-17T01:58:03.659Z,9.54
2017-11-17T01:59:03.645Z,9.57
2017-11-17T02:00:03.655Z,9.54
2017-11-17T02:01:03.610Z,9.58
2017-11-17T02:02:03.757Z,9.50
2017-11-17T02:03:03.564Z,9.50
2017-11-17T02:04:03.550Z,9.48
2017-11-17T02:05:03.537Z,9.51
2017-11-17T02:06:03.518Z,9.50
2017-11-17T02:07:03.511Z,9.48
2017-11-17T02:08:03.539Z,9.54
2017-11-17T02:09:03.484Z,9.50
2017-11-17T02:10:03.459Z,9.51
2017-11-17T02:11:03.513Z,9.46
2017-11-17T02:12:03.434Z,9.51
2017-11-17T02:13:03.419Z,9.46
2017-11-17T02:14:03.542Z,9.50
2017-11-17T02:15:03.386Z,9.46
2017-11-17T02:16:03.383Z,9.46
2017-11-17T02:17:03.794Z,9.43
2017-11-17T02:18:03.342Z,9.48
2017-11-17T02:19:03.329Z,9.47
2017-11-17T02:20:03.305Z,9.50
2017-11-17T02:21:03.303Z,9.51
2017-11-17T02:22:03.633Z,9.51
2017-11-17T02:23:03.306Z,9.40
2017-11-17T02:24:03.268Z,9.40
2017-11-17T02:25:03.244Z,9.46
2017-11-17T02:26:03.217Z,9.43
2017-11-17T02:27:03.217Z,9.42
2017-11-17T02:28:03.436Z,9.46
2017-11-17T02:29:03.181Z,9.46
2017-11-17T02:30:03.168Z,9.39
2017-11-17T02:31:03.153Z,9.36
2017-11-17T02:32:03.147Z,9.31
2017-11-17T02:33:03.138Z,9.35
2017-11-17T02:34:03.141Z,9.35
2017-11-17T02:35:03.098Z,9.32
2017-11-17T02:36:03.076Z,9.35
2017-11-17T02:37:03.077Z,9.36
2017-11-17T02:38:03.034Z,9.36
2017-11-17T02:39:03.079Z,9.24
2017-11-17T02:40:03.005Z,9.32
2017-11-17T02:41:03.000Z,9.36
2017-11-17T02:42:02.993Z,9.36
2017-11-17T02:43:02.966Z,9.28
2017-11-17T02:44:02.956Z,9.36
2017-11-17T02:45:03.015Z,9.29
2017-11-17T02:46:02.918Z,9.31
2017-11-17T02:47:02.895Z,9.29
2017-11-17T02:48:02.876Z,9.29
2017-11-17T02:49:02.872Z,9.32
2017-11-17T02:50:02.869Z,9.28
2017-11-17T02:51:02.871Z,9.29
2017-11-17T02:52:02.817Z,9.24
2017-11-17T02:53:02.831Z,9.35
2017-11-17T02:54:02.885Z,9.32
2017-11-17T02:55:02.790Z,9.32
2017-11-17T02:56:02.795Z,9.38
2017-11-17T02:57:02.765Z,9.31
2017-11-17T02:58:02.741Z,9.35
2017-11-17T02:59:02.719Z,9.36
2017-11-17T03:00:03.304Z,9.29
2017-11-17T03:01:02.690Z,9.24
2017-11-17T03:02:02.713Z,9.24
2017-11-17T03:03:02.671Z,9.21
2017-11-17T03:04:02.655Z,9.20
2017-11-17T03:05:02.690Z,9.20
2017-11-17T03:06:02.619Z,9.21
2017-11-17T03:07:02.596Z,9.20
2017-11-17T03:08:02.588Z,9.23
2017-11-17T03:09:02.624Z,9.15
2017-11-17T03:10:02.563Z,9.21
2017-11-17T03:11:02.574Z,9.21
2017-11-17T03:12:02.520Z,9.21
2017-11-17T03:13:02.528Z,9.21
2017-11-17T03:14:02.543Z,9.20
2017-11-17T03:15:02.492Z,9.24
2017-11-17T03:16:02.465Z,9.18
2017-11-17T03:17:02.442Z,9.13
2017-11-17T03:18:02.449Z,9.10
2017-11-17T03:19:02.463Z,9.18
2017-11-17T03:20:02.418Z,9.08
2017-11-17T03:21:02.388Z,9.10
2017-11-17T03:22:02.384Z,9.01
2017-11-17T03:23:02.361Z,9.11
2017-11-17T03:24:02.404Z,9.10
2017-11-17T03:25:02.325Z,9.05
2017-11-17T03:26:02.330Z,9.05
2017-11-17T03:27:02.296Z,9.13
2017-11-17T03:28:02.305Z,8.99
2017-11-17T03:29:02.272Z,9.02
2017-11-17T03:30:02.315Z,9.02
2017-11-17T03:31:02.244Z,9.10
2017-11-17T03:32:02.245Z,9.01
2017-11-17T03:33:03.185Z,8.95
2017-11-17T03:34:02.232Z,9.01
2017-11-17T03:35:02.210Z,8.96
2017-11-17T03:36:02.158Z,8.99
2017-11-17T03:37:02.150Z,8.94
2017-11-17T03:38:02.134Z,8.94
2017-11-17T03:39:02.122Z,8.86
2017-11-17T03:40:02.152Z,8.86
2017-11-17T03:41:02.088Z,8.86
2017-11-17T03:42:02.061Z,8.87
2017-11-17T03:43:02.047Z,8.81
2017-11-17T03:44:02.041Z,8.76
2017-11-17T03:45:02.032Z,8.80
2017-11-17T03:46:02.087Z,8.74
2017-11-17T03:47:01.994Z,8.81
2017-11-17T03:48:01.975Z,8.81
2017-11-17T03:49:01.968Z,8.76
2017-11-17T03:50:01.963Z,8.76
2017-11-17T03:51:01.927Z,8.73
2017-11-17T03:52:02.337Z,8.74
2017-11-17T03:53:01.908Z,8.74
2017-11-17T03:54:01.905Z,8.74
2017-11-17T03:55:01.869Z,8.70
2017-11-17T03:56:01.859Z,8.76
2017-11-17T03:57:02.784Z,8.62
2017-11-17T03:58:02.150Z,8.71
2017-11-17T03:59:01.802Z,8.61
2017-11-17T04:00:01.805Z,8.68
2017-11-17T04:01:01.784Z,8.63
2017-11-17T04:02:01.750Z,8.70
2017-11-17T04:03:01.733Z,8.59
2017-11-17T04:04:01.786Z,8.59
2017-11-17T04:05:01.721Z,8.68
2017-11-17T04:06:01.687Z,8.65
2017-11-17T04:07:01.687Z,8.65
2017-11-17T04:08:01.671Z,8.65
2017-11-17T04:09:01.653Z,8.65
2017-11-17T04:10:01.668Z,8.62
2017-11-17T04:11:01.883Z,8.61
2017-11-17T04:12:01.592Z,8.50
2017-11-17T04:13:01.589Z,8.55
2017-11-17T04:14:01.563Z,8.47
2017-11-17T04:15:01.564Z,8.53
2017-11-17T04:16:01.543Z,8.55
2017-11-17T04:17:01.653Z,8.55
2017-11-17T04:18:01.510Z,8.45
2017-11-17T04:19:01.498Z,8.48
2017-11-17T04:20:01.476Z,8.55
2017-11-17T04:21:01.474Z,8.47
2017-11-17T04:22:01.437Z,8.48
2017-11-17T04:23:01.488Z,8.47
2017-11-17T04:24:01.411Z,8.38
2017-11-17T04:25:01.398Z,8.41
2017-11-17T04:26:01.409Z,8.45
2017-11-17T04:27:01.369Z,8.41
2017-11-17T04:28:01.362Z,8.40
2017-11-17T04:29:01.495Z,8.41
2017-11-17T04:30:01.315Z,8.44
2017-11-17T04:31:01.305Z,8.33
2017-11-17T04:32:01.308Z,8.34
2017-11-17T04:33:01.806Z,8.30
2017-11-17T04:34:01.252Z,8.37
2017-11-17T04:35:01.382Z,8.30
2017-11-17T04:36:01.220Z,8.29
2017-11-17T04:37:01.868Z,8.40
2017-11-17T04:38:01.202Z,8.29
2017-11-17T04:39:01.169Z,8.36
2017-11-17T04:40:01.161Z,8.33
2017-11-17T04:41:01.574Z,8.30
2017-11-17T04:42:01.140Z,8.34
2017-11-17T04:43:01.122Z,8.26
2017-11-17T04:44:01.103Z,8.29
2017-11-17T04:45:01.090Z,8.25
2017-11-17T04:46:01.073Z,8.30
2017-11-17T04:47:01.225Z,8.30
2017-11-17T04:48:01.039Z,8.37
2017-11-17T04:49:01.010Z,8.28
2017-11-17T04:50:01.014Z,8.25
2017-11-17T04:51:01.126Z,8.22
2017-11-17T04:52:00.982Z,8.28
2017-11-17T04:53:01.012Z,8.26
2017-11-17T04:54:00.931Z,8.26
2017-11-17T04:55:00.939Z,8.22
2017-11-17T04:56:00.914Z,8.19
2017-11-17T04:57:00.933Z,8.23
2017-11-17T04:58:00.881Z,8.25
2017-11-17T04:59:00.858Z,8.25
2017-11-17T05:00:00.839Z,8.23
2017-11-17T05:01:00.832Z,8.25
2017-11-17T05:02:00.860Z,8.22
2017-11-17T05:03:00.808Z,8.18
2017-11-17T05:04:00.790Z,8.20
2017-11-17T05:05:00.822Z,8.07
2017-11-17T05:06:00.762Z,8.10
2017-11-17T05:07:00.855Z,8.05
2017-11-17T05:08:00.717Z,8.18
2017-11-17T05:09:00.724Z,8.16
2017-11-17T05:10:00.683Z,8.08
2017-11-17T05:11:00.663Z,8.04
2017-11-17T05:12:00.660Z,8.07
2017-11-17T05:13:00.700Z,8.07
2017-11-17T05:14:00.626Z,8.10
2017-11-17T05:15:00.604Z,8.07
2017-11-17T05:16:00.596Z,8.02
2017-11-17T05:17:00.579Z,8.05
2017-11-17T05:18:00.568Z,8.11
2017-11-17T05:19:00.916Z,8.08
2017-11-17T05:20:00.518Z,8.04
2017-11-17T05:21:00.502Z,8.05
2017-11-17T05:22:00.501Z,8.07
2017-11-17T05:23:00.522Z,8.15
2017-11-17T05:24:00.565Z,8.11
2017-11-17T05:25:00.578Z,8.07
2017-11-17T05:26:00.443Z,8.07
2017-11-17T05:27:00.422Z,8.07
2017-11-17T05:28:00.405Z,8.04
2017-11-17T05:29:00.388Z,8.02
2017-11-17T05:30:00.370Z,8.04
2017-11-17T05:31:00.400Z,8.04
2017-11-17T05:32:00.338Z,8.01
2017-11-17T05:33:00.335Z,7.97
2017-11-17T05:34:00.331Z,8.07
2017-11-17T05:35:00.290Z,7.97
2017-11-17T05:36:00.348Z,8.05
2017-11-17T05:37:00.259Z,8.07
2017-11-17T05:38:00.237Z,8.05
2017-11-17T05:39:00.232Z,8.00
2017-11-17T05:40:00.220Z,7.90
2017-11-17T05:41:00.180Z,8.05
2017-11-17T05:42:00.310Z,7.93
2017-11-17T05:43:00.191Z,7.93
2017-11-17T05:44:00.143Z,7.92
2017-11-17T05:45:00.134Z,7.92
2017-11-17T05:46:00.126Z,7.90
2017-11-17T05:47:00.099Z,7.93
2017-11-17T05:48:00.137Z,7.92
2017-11-17T05:49:00.051Z,7.92
2017-11-17T05:50:00.045Z,7.89
2017-11-17T05:51:00.035Z,7.93
2017-11-17T05:52:00.016Z,7.92
2017-11-17T05:53:00.018Z,7.86
2017-11-17T05:54:00.357Z,7.89
2017-11-17T05:54:59.970Z,7.93
2017-11-17T05:55:59.965Z,7.87
2017-11-17T05:56:59.941Z,7.89
2017-11-17T05:57:59.944Z,7.82
2017-11-17T05:58:59.894Z,7.86
2017-11-17T06:00:00.020Z,7.80
2017-11-17T06:00:59.883Z,7.87
2017-11-17T06:01:59.858Z,7.89
2017-11-17T06:02:59.844Z,7.85
2017-11-17T06:03:59.849Z,7.85
2017-11-17T06:04:59.805Z,7.89
2017-11-17T06:05:59.851Z,7.89
2017-11-17T06:06:59.780Z,7.79
2017-11-17T06:07:59.749Z,7.85
2017-11-17T06:08:59.770Z,7.82
2017-11-17T06:09:59.717Z,7.85
2017-11-17T06:10:59.718Z,7.82
2017-11-17T06:11:59.746Z,7.86
2017-11-17T06:12:59.681Z,7.82
2017-11-17T06:13:59.666Z,7.86
2017-11-17T06:14:59.674Z,7.80
2017-11-17T06:15:59.658Z,7.87
2017-11-17T06:16:59.616Z,7.85
2017-11-17T06:17:59.650Z,7.83
2017-11-17T06:18:59.655Z,7.85
2017-11-17T06:19:59.562Z,7.86
2017-11-17T06:20:59.546Z,7.90
2017-11-17T06:21:59.535Z,7.87
2017-11-17T06:22:59.517Z,7.85
2017-11-17T06:23:59.504Z,7.86
2017-11-17T06:24:59.677Z,7.85
2017-11-17T06:25:59.465Z,7.86
2017-11-17T06:26:59.442Z,7.85
2017-11-17T06:27:59.470Z,7.85
2017-11-17T06:28:59.415Z,7.77
2017-11-17T06:29:59.418Z,7.86
2017-11-17T06:30:59.482Z,7.80
2017-11-17T06:31:59.383Z,7.71
2017-11-17T06:32:59.352Z,7.80
2017-11-17T06:33:59.340Z,7.89
2017-11-17T06:34:59.323Z,7.80
2017-11-17T06:35:59.306Z,7.77
2017-11-17T06:36:59.437Z,7.80
2017-11-17T06:37:59.278Z,7.74
2017-11-17T06:38:59.264Z,7.83
2017-11-17T06:39:59.231Z,7.74
2017-11-17T06:40:59.228Z,7.83
2017-11-17T06:41:59.212Z,7.77
2017-11-17T06:42:59.262Z,7.75
2017-11-17T06:43:59.184Z,7.77
2017-11-17T06:44:59.163Z,7.75
2017-11-17T06:45:59.146Z,7.74
2017-11-17T06:46:59.122Z,7.75
2017-11-17T06:47:59.125Z,7.74
2017-11-17T06:48:59.156Z,7.85
2017-11-17T06:49:59.066Z,7.77
2017-11-17T06:50:59.073Z,7.86
2017-11-17T06:51:59.055Z,7.82
2017-11-17T06:52:59.029Z,7.72
2017-11-17T06:53:59.014Z,7.80
2017-11-17T06:54:59.035Z,7.77
2017-11-17T06:55:58.969Z,7.80
2017-11-17T06:56:58.972Z,7.80
2017-11-17T06:57:58.949Z,7.80
2017-11-17T06:58:58.925Z,7.87
2017-11-17T06:59:58.983Z,7.82
2017-11-17T07:00:58.898Z,7.80
2017-11-17T07:01:58.877Z,7.79
2017-11-17T07:02:58.872Z,7.77
2017-11-17T07:03:58.851Z,7.74
2017-11-17T07:04:58.832Z,7.74
2017-11-17T07:05:58.981Z,7.74
2017-11-17T07:06:58.812Z,7.72
2017-11-17T07:07:58.779Z,7.60
2017-11-17T07:08:58.770Z,7.71
2017-11-17T07:09:58.778Z,7.67
2017-11-17T07:10:58.740Z,7.60
2017-11-17T07:11:58.752Z,7.64
2017-11-17T07:12:58.711Z,7.50
2017-11-17T07:13:58.685Z,7.63
2017-11-17T07:14:58.809Z,7.60
2017-11-17T07:15:58.662Z,7.58
2017-11-17T07:16:58.652Z,7.53
2017-11-17T07:17:58.613Z,7.50
2017-11-17T07:18:58.611Z,7.60
2017-11-17T07:19:58.596Z,7.60
2017-11-17T07:20:58.962Z,7.57
2017-11-17T07:21:58.573Z,7.50
2017-11-17T07:22:58.531Z,7.57
2017-11-17T07:23:58.515Z,7.57
2017-11-17T07:24:58.509Z,7.57
2017-11-17T07:25:58.501Z,7.58
2017-11-17T07:26:58.627Z,7.58
2017-11-17T07:27:58.454Z,7.50
2017-11-17T07:28:58.450Z,7.57
2017-11-17T07:29:58.417Z,7.48
2017-11-17T07:30:58.401Z,7.43
2017-11-17T07:31:58.386Z,7.39
2017-11-17T07:32:58.520Z,7.45
2017-11-17T07:33:58.351Z,7.28
2017-11-17T07:34:58.346Z,7.17
2017-11-17T07:35:58.356Z,7.16
2017-11-17T07:36:58.319Z,7.02
2017-11-17T07:37:58.296Z,6.94
2017-11-17T07:38:58.352Z,6.84
2017-11-17T07:39:58.265Z,6.81
2017-11-17T07:40:58.248Z,6.67
2017-11-17T07:41:58.226Z,6.64
2017-11-17T07:42:58.223Z,6.70
2017-11-17T07:43:58.202Z,6.61
2017-11-17T07:44:58.218Z,6.64
2017-11-17T07:45:58.159Z,6.56
2017-11-17T07:46:58.149Z,6.51
2017-11-17T07:47:58.118Z,6.55
2017-11-17T07:48:58.118Z,6.56
2017-11-17T07:49:58.163Z,6.58
2017-11-17T07:50:58.076Z,6.49
2017-11-17T07:51:58.056Z,6.51
2017-11-17T07:52:58.057Z,6.48
2017-11-17T07:53:58.025Z,6.40
2017-11-17T07:54:58.031Z,6.51
2017-11-17T07:55:58.434Z,6.44
2017-11-17T07:56:57.997Z,6.38
2017-11-17T07:57:57.964Z,6.40
2017-11-17T07:58:57.994Z,6.41
2017-11-17T07:59:57.931Z,6.41
2017-11-17T08:00:57.913Z,6.40
2017-11-17T08:01:57.968Z,6.40
2017-11-17T08:02:57.900Z,6.38
2017-11-17T08:03:57.869Z,6.38
2017-11-17T08:04:57.847Z,6.38
2017-11-17T08:05:57.840Z,6.38
2017-11-17T08:06:57.808Z,6.34
2017-11-17T08:07:57.915Z,6.36
2017-11-17T08:14:19.728Z,6.43
2017-11-17T08:14:52.843Z,6.38
2017-11-17T08:15:52.469Z,6.38
2017-11-17T08:30:42.495Z,6.55
2017-11-17T08:31:42.698Z,6.62
2017-11-17T08:32:42.717Z,6.62
2017-11-17T08:33:42.285Z,6.67
2017-11-17T08:34:41.928Z,6.64
2017-11-17T08:35:42.688Z,6.64
2017-11-17T08:36:42.476Z,6.69
2017-11-17T08:37:41.851Z,6.62
2017-11-17T08:38:41.799Z,6.69
2017-11-17T08:39:41.764Z,6.64
2017-11-17T08:40:41.752Z,6.74
2017-11-17T08:41:41.745Z,6.66
2017-11-17T08:42:41.881Z,6.69
2017-11-17T08:43:41.709Z,6.69
2017-11-17T08:44:41.694Z,6.62
2017-11-17T08:45:41.683Z,6.69
2017-11-17T08:46:41.659Z,6.62
2017-11-17T08:48:02.718Z,6.71
2017-11-17T08:48:41.618Z,6.70
2017-11-17T08:49:41.629Z,6.77
2017-11-17T08:50:41.584Z,6.79
2017-11-17T08:51:41.580Z,6.74
2017-11-17T08:52:41.548Z,6.77
2017-11-17T08:53:41.622Z,6.80
2017-11-17T08:54:41.525Z,6.85
2017-11-17T08:55:41.514Z,6.77
2017-11-17T08:56:41.554Z,6.84
2017-11-17T08:57:41.488Z,6.85
2017-11-17T08:58:41.457Z,6.80
2017-11-17T08:59:41.513Z,6.79
2017-11-17T09:00:41.430Z,6.76
2017-11-17T09:01:41.414Z,6.73
2017-11-17T09:02:41.440Z,6.77
2017-11-17T09:03:41.403Z,6.77
2017-11-17T09:04:41.509Z,6.81
2017-11-17T09:05:41.469Z,6.79
2017-11-17T09:06:41.327Z,6.85
2017-11-17T09:07:41.308Z,6.85
2017-11-17T09:08:41.298Z,6.88
2017-11-17T09:09:41.290Z,6.87
2017-11-17T09:10:41.255Z,6.89
2017-11-17T09:11:41.285Z,6.94
2017-11-17T09:12:41.228Z,6.94
2017-11-17T09:13:41.213Z,6.99
2017-11-17T09:14:41.254Z,7.02
2017-11-17T09:15:41.182Z,7.12
2017-11-17T09:16:41.161Z,7.06
2017-11-17T09:17:41.222Z,7.02
2017-11-17T09:18:41.128Z,7.03
2017-11-17T09:19:41.117Z,7.12
2017-11-17T09:20:41.106Z,7.13
2017-11-17T09:21:41.069Z,7.17
2017-11-17T09:22:41.081Z,7.20
2017-11-17T09:23:41.125Z,7.16
2017-11-17T09:24:41.069Z,7.24
2017-11-17T09:25:41.201Z,7.25
2017-11-17T09:26:41.011Z,7.24
2017-11-17T09:27:41.001Z,7.24
2017-11-17T09:28:41.001Z,7.25
2017-11-17T09:29:41.098Z,7.37
2017-11-17T09:30:40.936Z,7.31
2017-11-17T09:31:40.948Z,7.37
2017-11-17T09:32:40.914Z,7.31
2017-11-17T09:33:40.897Z,7.34
2017-11-17T09:39:23.552Z,7.58
2017-11-17T09:40:23.455Z,7.57
2017-11-17T09:41:23.353Z,7.57
2017-11-17T09:42:23.339Z,7.61
2017-11-17T09:43:23.372Z,7.55
2017-11-17T09:44:23.291Z,7.60
2017-11-17T09:45:23.333Z,7.64
2017-11-17T09:46:23.278Z,7.63
2017-11-17T09:47:23.271Z,7.71
2017-11-17T09:48:23.240Z,7.71
2017-11-17T09:49:23.266Z,7.77
2017-11-17T09:50:23.219Z,7.82
2017-11-17T09:51:23.291Z,7.79
2017-11-17T09:52:23.378Z,7.74
2017-11-17T09:53:23.316Z,7.77
2017-11-17T09:54:24.168Z,7.77
2017-11-17T09:55:23.178Z,7.75
2017-11-17T09:56:23.225Z,7.82
2017-11-17T09:57:56.815Z,7.86
2017-11-17T09:58:23.833Z,7.77
2017-11-17T09:59:23.717Z,7.77
2017-11-17T10:00:23.816Z,7.82
2017-11-17T10:01:23.857Z,7.90
2017-11-17T10:02:23.919Z,7.95
2017-11-17T10:03:23.493Z,7.93
2017-11-17T10:04:22.975Z,7.90
2017-11-17T10:05:22.965Z,7.98
2017-11-17T10:06:22.936Z,7.98
2017-11-17T10:07:26.939Z,8.07
2017-11-17T10:08:22.917Z,8.10
2017-11-17T10:09:22.924Z,8.01
2017-11-17T10:10:22.966Z,8.04
2017-11-17T10:11:22.869Z,8.07
2017-11-17T10:12:22.923Z,8.07
2017-11-17T10:13:22.821Z,8.07
2017-11-17T10:14:22.808Z,8.07
2017-11-17T10:15:22.794Z,8.08
2017-11-17T10:16:22.793Z,8.20
2017-11-17T10:17:22.763Z,8.25
2017-11-17T10:18:22.793Z,8.20
2017-11-17T10:19:22.739Z,8.25
2017-11-17T10:20:22.740Z,8.19
2017-11-17T10:21:22.697Z,8.26
2017-11-17T10:22:22.721Z,8.28
2017-11-17T10:23:22.681Z,8.19
2017-11-17T10:24:22.658Z,8.25
2017-11-17T10:25:22.660Z,8.28
2017-11-17T10:26:22.619Z,8.29
2017-11-17T10:27:22.758Z,8.30
2017-11-17T10:28:22.591Z,8.28
2017-11-17T10:29:22.622Z,8.28
2017-11-17T10:30:22.567Z,8.34
2017-11-17T10:31:22.560Z,8.37
2017-11-17T10:32:22.556Z,8.33
2017-11-17T10:33:22.782Z,8.41
2017-11-17T10:34:22.491Z,8.41
2017-11-17T10:35:22.482Z,8.41
2017-11-17T10:36:22.475Z,8.44
2017-11-17T10:37:22.458Z,8.43
2017-11-17T10:38:22.438Z,8.40
2017-11-17T10:39:22.561Z,8.47
2017-11-17T10:40:22.405Z,8.50
2017-11-17T10:41:22.405Z,8.50
2017-11-17T10:42:22.371Z,8.53
2017-11-17T10:43:22.351Z,8.48
2017-11-17T10:44:22.339Z,8.48
2017-11-17T10:45:22.478Z,8.47
2017-11-17T10:46:22.330Z,8.59
2017-11-17T10:47:22.300Z,8.52
2017-11-17T10:48:22.294Z,8.45
2017-11-17T10:49:22.258Z,8.62
2017-11-17T10:50:22.253Z,8.59
2017-11-17T10:51:22.298Z,8.65
2017-11-17T10:52:22.228Z,8.65
2017-11-17T10:53:22.212Z,8.63
2017-11-17T10:54:22.182Z,8.66
2017-11-17T10:55:22.168Z,8.61
2017-11-17T10:56:22.168Z,8.71
2017-11-17T10:57:22.197Z,8.65
2017-11-17T10:58:22.128Z,8.63
2017-11-17T10:59:22.108Z,8.59
2017-11-17T11:00:22.088Z,8.66
2017-11-17T11:01:22.090Z,8.81
2017-11-17T11:02:22.065Z,8.80
2017-11-17T11:03:22.128Z,8.81
2017-11-17T11:04:22.037Z,8.74
2017-11-17T11:05:22.007Z,8.83
2017-11-17T11:06:22.002Z,8.73
2017-11-17T11:07:21.988Z,8.87
2017-11-17T11:08:21.964Z,8.80
2017-11-17T11:09:22.015Z,8.80
2017-11-17T11:10:21.944Z,8.83
2017-11-17T11:11:21.919Z,8.81
2017-11-17T11:12:21.917Z,8.76
2017-11-17T11:13:21.902Z,8.80
2017-11-17T11:14:21.885Z,8.76
2017-11-17T11:15:21.996Z,8.87
2017-11-17T11:16:21.846Z,8.92
2017-11-17T11:17:21.838Z,8.87
2017-11-17T11:18:21.824Z,8.89
2017-11-17T11:19:21.827Z,8.94
2017-11-17T11:20:21.785Z,8.95
2017-11-17T11:21:21.839Z,8.87
2017-11-17T11:22:21.762Z,9.01
2017-11-17T11:23:21.731Z,8.95
2017-11-17T11:24:21.736Z,8.94
2017-11-17T11:25:21.695Z,8.92
2017-11-17T11:26:21.696Z,9.01
2017-11-17T11:27:21.823Z,9.04
2017-11-17T11:28:21.662Z,9.04
2017-11-17T11:29:21.639Z,9.08
2017-11-17T11:30:21.636Z,9.01
2017-11-17T11:31:21.611Z,8.99
2017-11-17T11:32:21.609Z,8.99
2017-11-17T11:33:21.640Z,9.11
2017-11-17T11:34:21.572Z,9.08
2017-11-17T11:35:21.565Z,9.20
2017-11-17T11:36:21.548Z,9.17
2017-11-17T11:37:21.530Z,9.18
2017-11-17T11:38:21.504Z,9.18
2017-11-17T11:39:21.635Z,9.20
2017-11-17T11:40:21.485Z,9.18
2017-11-17T11:41:21.452Z,9.18
2017-11-17T11:42:21.449Z,9.20
2017-11-17T11:43:21.437Z,9.21
2017-11-17T11:44:21.416Z,9.18
2017-11-17T11:45:21.446Z,9.21
2017-11-17T11:46:21.396Z,9.36
2017-11-17T11:47:21.379Z,9.32
2017-11-17T11:48:21.377Z,9.33
2017-11-17T11:49:21.337Z,9.29
2017-11-17T11:50:21.396Z,9.33
2017-11-17T11:51:21.332Z,9.35
2017-11-17T11:52:21.315Z,9.40
2017-11-17T11:53:45.703Z,9.40
2017-11-17T12:02:40.306Z,9.43
2017-11-17T12:03:59.499Z,9.46
2017-11-17T12:04:40.544Z,9.35
2017-11-17T12:05:40.198Z,9.38
2017-11-17T12:06:40.601Z,9.48
2017-11-17T12:07:40.747Z,9.46
2017-11-17T12:08:40.119Z,9.46
2017-11-17T12:09:40.097Z,9.47
2017-11-17T12:10:40.079Z,9.47
2017-11-17T12:11:40.078Z,9.53
2017-11-17T12:12:40.201Z,9.48
2017-11-17T12:13:40.089Z,9.50
2017-11-17T12:14:40.035Z,9.51
2017-11-17T12:15:40.049Z,9.56
2017-11-17T12:16:39.995Z,9.64
2017-11-17T12:17:40.121Z,9.53
2017-11-17T12:18:39.962Z,9.54
2017-11-17T12:19:39.939Z,9.61
2017-11-17T12:20:39.934Z,9.60
2017-11-17T12:21:39.927Z,9.65
2017-11-17T12:22:39.912Z,9.53
2017-11-17T12:23:40.047Z,9.65
2017-11-17T12:24:39.867Z,9.69
2017-11-17T12:25:39.852Z,9.60
2017-11-17T12:26:39.857Z,9.72
2017-11-17T12:27:39.822Z,9.76
2017-11-17T12:28:39.825Z,9.79
2017-11-17T12:29:39.873Z,9.90
2017-11-17T12:30:39.786Z,9.86
2017-11-17T12:31:39.757Z,9.96
2017-11-17T12:32:39.757Z,9.91
2017-11-17T12:33:39.743Z,10.02
2017-11-17T12:34:39.714Z,9.99
2017-11-17T12:35:39.866Z,10.07
2017-11-17T12:36:39.720Z,10.02
2017-11-17T12:37:39.686Z,10.05
2017-11-17T12:38:39.664Z,10.09
2017-11-17T12:39:39.654Z,10.04
2017-11-17T12:40:39.657Z,10.05
2017-11-17T12:41:39.658Z,10.07
2017-11-17T12:45:36.847Z,10.07
2017-11-17T12:46:36.716Z,10.22
2017-11-17T12:47:37.362Z,10.14
2017-11-17T12:50:27.237Z,10.20
2017-11-17T12:51:27.368Z,10.20
2017-11-17T12:52:51.615Z,10.23
2017-11-17T12:53:26.779Z,10.23
2017-11-17T12:54:26.860Z,10.29
2017-11-17T12:55:27.488Z,10.29
2017-11-17T12:56:26.761Z,10.33
2017-11-17T12:57:26.635Z,10.25
2017-11-17T12:58:26.790Z,10.36
2017-11-17T12:59:26.626Z,10.23
2017-11-17T13:00:26.583Z,10.26
2017-11-17T13:01:26.568Z,10.26
2017-11-17T13:02:26.590Z,10.18
2017-11-17T13:03:26.613Z,10.12
2017-11-17T13:04:26.551Z,10.23
2017-11-17T13:05:26.522Z,10.23
2017-11-17T13:06:26.540Z,10.18
2017-11-17T13:07:26.630Z,10.14
2017-11-17T13:08:26.472Z,10.17
2017-11-17T13:09:26.453Z,10.12
2017-11-17T13:10:26.442Z,10.05
2017-11-17T13:11:26.433Z,10.07
2017-11-17T13:12:26.937Z,10.04
2017-11-17T13:13:26.494Z,9.96
2017-11-17T13:14:26.411Z,9.94
2017-11-17T13:15:26.369Z,9.93
2017-11-17T13:16:26.370Z,9.94
2017-11-17T13:17:26.348Z,9.94
2017-11-17T13:18:26.336Z,9.78
2017-11-17T13:19:26.468Z,9.76
2017-11-17T13:20:36.644Z,9.78
2017-11-17T13:22:26.946Z,9.79
2017-11-17T13:23:35.019Z,9.74
2017-11-17T13:24:26.589Z,9.68
2017-11-17T13:25:32.240Z,9.68
2017-11-17T13:53:12.194Z,9.96
2017-11-17T13:54:03.767Z,10.04
2017-11-17T13:55:03.611Z,10.02
2017-11-17T13:56:03.553Z,10.11
2017-11-17T14:03:50.029Z,10.63
2017-11-17T14:04:50.023Z,10.56
2017-11-17T14:05:50.235Z,10.61
2017-11-17T14:06:50.868Z,10.53
2017-11-17T14:07:50.657Z,10.56
2017-11-17T14:08:50.506Z,10.61
2017-11-17T14:15:25.362Z,10.68
2017-11-17T14:25:02.599Z,10.26
2017-11-17T14:26:02.721Z,10.22
2017-11-17T14:27:02.655Z,10.14
2017-11-17T14:28:02.389Z,10.09
2017-11-17T14:29:03.057Z,9.99
2017-11-17T14:34:05.188Z,9.94
2017-11-17T14:35:04.528Z,9.90
2017-11-17T14:36:04.562Z,9.86
2017-11-17T14:37:04.330Z,9.87
2017-11-17T14:38:03.921Z,9.76
2017-11-17T14:39:04.077Z,9.83
2017-11-17T14:45:17.933Z,9.68
2017-11-17T14:46:09.944Z,9.68
2017-11-17T14:47:09.653Z,9.60
2017-11-17T14:48:09.309Z,9.68
2017-11-17T14:49:09.317Z,9.60
2017-11-17T14:50:09.712Z,9.60